createdAt,value
2018-06-08T00:00:29.393Z,23.80
2018-06-08T00:02:57.836Z,23.80
2018-06-08T00:05:26.249Z,23.70
2018-06-08T00:07:54.628Z,23.70
2018-06-08T00:10:23.032Z,23.70
2018-06-08T00:12:51.314Z,23.60
2018-06-08T00:15:19.702Z,23.60
2018-06-08T00:17:48.164Z,23.60
2018-06-08T00:20:16.628Z,23.60
2018-06-08T00:22:45.046Z,23.50
2018-06-08T00:25:13.452Z,23.40
2018-06-08T00:27:41.824Z,23.40
2018-06-08T00:30:10.254Z,23.30
2018-06-08T00:32:38.640Z,23.30
2018-06-08T00:35:07.032Z,23.30
2018-06-08T00:37:35.460Z,23.20
2018-06-08T00:40:03.844Z,23.20
2018-06-08T00:42:32.327Z,23.10
2018-06-08T00:45:00.826Z,23.10
2018-06-08T00:47:29.172Z,23.10
2018-06-08T00:49:57.601Z,23.00
2018-06-08T00:52:26.119Z,23.00
2018-06-08T00:54:54.584Z,22.90
2018-06-08T00:57:23.004Z,22.90
2018-06-08T00:59:51.369Z,22.90
2018-06-08T01:02:19.817Z,22.90
2018-06-08T01:04:48.324Z,22.80
2018-06-08T01:07:16.767Z,22.80
2018-06-08T01:09:45.168Z,22.70
2018-06-08T01:12:13.608Z,22.70
2018-06-08T01:14:42.132Z,22.70
2018-06-08T01:17:10.546Z,22.60
2018-06-08T01:19:38.929Z,22.60
2018-06-08T01:22:07.313Z,22.60
2018-06-08T01:24:35.733Z,22.50
2018-06-08T01:27:04.120Z,22.50
2018-06-08T01:29:32.470Z,22.40
2018-06-08T01:32:00.955Z,22.40
2018-06-08T01:34:29.411Z,22.40
2018-06-08T01:36:57.808Z,22.40
2018-06-08T01:39:26.678Z,22.30
2018-06-08T01:41:55.213Z,22.30
2018-06-08T01:44:23.549Z,22.30
2018-06-08T01:46:52.005Z,22.20
2018-06-08T01:49:20.394Z,22.20
2018-06-08T01:51:48.845Z,22.20
2018-06-08T01:54:17.218Z,22.10
2018-06-08T01:56:45.948Z,22.10
2018-06-08T01:59:14.304Z,22.10
2018-06-08T02:01:42.665Z,22.10
2018-06-08T02:04:11.046Z,22.00
2018-06-08T02:06:39.540Z,22.00
2018-06-08T02:09:08.343Z,22.00
2018-06-08T02:11:36.725Z,22.00
2018-06-08T02:14:05.164Z,22.00
2018-06-08T02:16:33.563Z,22.00
2018-06-08T02:19:01.953Z,22.00
2018-06-08T02:21:30.733Z,22.00
2018-06-08T02:23:59.149Z,21.90
2018-06-08T02:26:27.575Z,21.90
2018-06-08T02:28:55.951Z,21.90
2018-06-08T02:31:24.346Z,21.90
2018-06-08T02:36:20.930Z,21.80
2018-06-08T02:38:49.314Z,21.80
2018-06-08T02:41:17.782Z,21.70
2018-06-08T02:43:46.247Z,21.70
2018-06-08T02:46:14.634Z,21.70
2018-06-08T02:48:43.053Z,21.60
2018-06-08T02:51:12.019Z,21.60
2018-06-08T02:53:40.386Z,21.50
2018-06-08T02:56:08.820Z,21.40
2018-06-08T02:58:37.643Z,21.40
2018-06-08T03:01:06.106Z,21.40
2018-06-08T03:03:34.501Z,21.30
2018-06-08T03:06:03.046Z,21.30
2018-06-08T03:08:31.461Z,21.30
2018-06-08T03:10:59.894Z,21.30
2018-06-08T03:13:28.267Z,21.30
2018-06-08T03:15:57.066Z,21.20
2018-06-08T03:18:25.629Z,21.20
2018-06-08T03:20:53.962Z,21.20
2018-06-08T03:23:22.401Z,21.20
2018-06-08T03:25:50.830Z,21.10
2018-06-08T03:28:19.216Z,21.10
2018-06-08T03:30:47.641Z,21.10
2018-06-08T03:33:16.009Z,21.10
2018-06-08T03:38:12.479Z,21.10
2018-06-08T03:40:40.990Z,21.10
2018-06-08T03:43:09.393Z,21.10
2018-06-08T03:45:37.739Z,21.10
2018-06-08T03:48:06.211Z,21.10
2018-06-08T03:50:34.593Z,21.10
2018-06-08T03:53:02.949Z,21.00
2018-06-08T03:55:31.313Z,21.00
2018-06-08T03:57:59.725Z,21.10
2018-06-08T04:02:56.301Z,21.10
2018-06-08T04:05:24.654Z,21.10
2018-06-08T04:07:53.142Z,21.10
2018-06-08T04:10:21.731Z,21.10
2018-06-08T04:12:50.157Z,21.10
2018-06-08T04:15:18.637Z,21.10
2018-06-08T04:17:47.123Z,21.10
2018-06-08T04:20:15.549Z,21.10
2018-06-08T04:25:12.053Z,21.10
2018-06-08T04:27:40.860Z,21.00
2018-06-08T04:30:09.315Z,21.00
2018-06-08T04:32:37.728Z,21.10
2018-06-08T04:35:06.110Z,21.10
2018-06-08T04:37:34.585Z,21.10
2018-06-08T04:40:02.997Z,21.10
2018-06-08T04:42:31.434Z,21.10
2018-06-08T04:44:59.814Z,21.10
2018-06-08T04:47:28.246Z,21.20
2018-06-08T04:49:56.668Z,21.20
2018-06-08T04:52:25.117Z,21.20
2018-06-08T04:54:53.578Z,21.20
2018-06-08T04:57:22.032Z,21.30
2018-06-08T04:59:50.479Z,21.30
2018-06-08T05:02:18.922Z,21.30
2018-06-08T05:04:47.361Z,21.30
2018-06-08T05:07:15.904Z,21.30
2018-06-08T05:09:44.328Z,21.40
2018-06-08T05:12:12.805Z,21.40
2018-06-08T05:14:41.280Z,21.40
2018-06-08T05:17:09.665Z,21.40
2018-06-08T05:19:38.136Z,21.50
2018-06-08T05:22:06.570Z,21.50
2018-06-08T05:24:35.136Z,21.50
2018-06-08T05:27:03.527Z,21.60
2018-06-08T05:29:31.994Z,21.60
2018-06-08T05:32:00.449Z,21.60
2018-06-08T05:34:29.250Z,21.60
2018-06-08T05:36:57.713Z,21.70
2018-06-08T05:39:26.173Z,21.80
2018-06-08T05:41:54.661Z,21.80
2018-06-08T05:44:23.042Z,21.90
2018-06-08T05:46:51.510Z,21.90
2018-06-08T05:49:19.956Z,21.90
2018-06-08T05:51:48.372Z,22.00
2018-06-08T05:54:16.787Z,22.00
2018-06-08T05:56:45.213Z,22.00
2018-06-08T05:59:13.717Z,22.10
2018-06-08T06:01:42.087Z,22.10
2018-06-08T06:04:10.423Z,22.10
2018-06-08T06:06:38.844Z,22.20
2018-06-08T06:09:08.621Z,22.20
2018-06-08T06:11:37.164Z,22.20
2018-06-08T06:14:05.587Z,22.20
2018-06-08T06:16:34.073Z,22.20
2018-06-08T06:19:02.445Z,22.30
2018-06-08T06:21:31.171Z,22.30
2018-06-08T06:23:59.554Z,22.30
2018-06-08T06:26:27.938Z,22.30
2018-06-08T06:28:56.312Z,22.30
2018-06-08T06:31:24.732Z,22.30
2018-06-08T06:33:53.117Z,22.20
2018-06-08T06:36:21.488Z,22.20
2018-06-08T06:38:50.181Z,22.30
2018-06-08T06:41:18.648Z,22.30
2018-06-08T06:43:47.009Z,22.40
2018-06-08T06:46:15.393Z,22.40
2018-06-08T06:48:43.786Z,22.40
2018-06-08T06:51:12.234Z,22.40
2018-06-08T06:53:40.696Z,22.40
2018-06-08T06:56:09.170Z,22.50
2018-06-08T06:58:37.528Z,22.50
2018-06-08T07:01:05.687Z,22.60
2018-06-08T07:03:33.821Z,22.60
2018-06-08T07:06:02.085Z,22.70
2018-06-08T07:08:30.526Z,22.70
2018-06-08T07:10:58.851Z,22.70
2018-06-08T07:13:27.269Z,22.70
2018-06-08T07:15:55.641Z,22.80
2018-06-08T07:18:23.992Z,22.80
2018-06-08T07:20:52.369Z,23.00
2018-06-08T07:23:20.760Z,23.00
2018-06-08T07:25:49.137Z,23.00
2018-06-08T07:28:17.559Z,23.10
2018-06-08T07:30:45.870Z,23.20
2018-06-08T07:33:14.225Z,23.20
2018-06-08T07:35:42.589Z,23.20
2018-06-08T07:38:11.064Z,23.40
2018-06-08T07:40:39.395Z,23.40
2018-06-08T07:43:07.882Z,23.40
2018-06-08T07:45:36.295Z,23.40
2018-06-08T07:48:04.893Z,23.50
2018-06-08T07:50:33.282Z,23.60
2018-06-08T07:53:01.842Z,23.60
2018-06-08T07:55:30.436Z,23.70
2018-06-08T08:00:27.191Z,23.80
2018-06-08T08:02:55.625Z,23.90
2018-06-08T08:05:24.056Z,23.90
2018-06-08T08:07:52.450Z,23.90
2018-06-08T08:10:20.838Z,23.90
2018-06-08T08:12:49.224Z,24.00
2018-06-08T08:15:17.601Z,24.10
2018-06-08T08:17:45.992Z,24.10
2018-06-08T08:20:14.333Z,24.20
2018-06-08T08:22:42.732Z,24.30
2018-06-08T08:25:11.139Z,24.30
2018-06-08T08:27:39.492Z,24.40
2018-06-08T08:30:07.825Z,24.40
2018-06-08T08:32:36.269Z,24.50
2018-06-08T08:35:04.740Z,24.50
2018-06-08T08:37:33.169Z,24.50
2018-06-08T08:40:01.619Z,24.60
2018-06-08T08:42:30.012Z,24.70
2018-06-08T08:44:58.533Z,24.70
2018-06-08T08:47:27.163Z,24.80
2018-06-08T08:49:55.620Z,24.80
2018-06-08T08:52:23.987Z,24.90
2018-06-08T08:54:52.510Z,24.90
2018-06-08T08:57:20.952Z,24.90
2018-06-08T08:59:49.408Z,25.00
2018-06-08T09:02:19.034Z,25.00
2018-06-08T09:04:47.413Z,25.00
2018-06-08T09:07:15.792Z,25.00
2018-06-08T09:09:44.301Z,25.10
2018-06-08T09:12:12.741Z,25.20
2018-06-08T09:14:41.148Z,25.20
2018-06-08T09:17:09.479Z,25.30
2018-06-08T09:19:37.883Z,25.40
2018-06-08T09:22:06.450Z,25.50
2018-06-08T09:24:34.817Z,25.50
2018-06-08T09:29:31.524Z,25.60
2018-06-08T09:31:59.930Z,25.80
2018-06-08T09:34:28.301Z,25.80
2018-06-08T09:36:56.700Z,25.90
2018-06-08T09:39:25.218Z,26.00
2018-06-08T09:41:53.535Z,26.00
2018-06-08T09:44:21.876Z,26.20
2018-06-08T09:46:50.323Z,26.20
2018-06-08T09:49:18.676Z,26.30
2018-06-08T09:51:47.131Z,26.30
2018-06-08T09:54:15.531Z,26.30
2018-06-08T09:56:43.890Z,26.30
2018-06-08T09:59:12.189Z,26.40
2018-06-08T10:01:40.538Z,26.40
2018-06-08T10:04:08.862Z,26.50
2018-06-08T10:06:37.225Z,26.60
2018-06-08T10:09:08.725Z,26.70
2018-06-08T10:11:37.060Z,26.70
2018-06-08T10:14:05.477Z,26.70
2018-06-08T10:16:33.845Z,26.80
2018-06-08T10:19:02.200Z,26.80
2018-06-08T10:21:30.562Z,27.00
2018-06-08T10:23:58.973Z,27.00
2018-06-08T10:26:27.350Z,27.00
2018-06-08T10:28:55.774Z,27.10
2018-06-08T10:31:24.099Z,27.20
2018-06-08T10:33:52.539Z,27.20
2018-06-08T10:36:21.015Z,27.20
2018-06-08T10:38:49.374Z,27.30
2018-06-08T10:41:18.278Z,27.30
2018-06-08T10:43:46.649Z,27.40
2018-06-08T10:46:15.420Z,27.40
2018-06-08T10:48:43.836Z,27.50
2018-06-08T10:51:12.228Z,27.50
2018-06-08T10:53:40.740Z,27.40
2018-06-08T10:56:09.198Z,27.50
2018-06-08T10:58:37.646Z,27.50
2018-06-08T11:01:06.053Z,27.60
2018-06-08T11:03:34.410Z,27.60
2018-06-08T11:06:02.893Z,27.60
2018-06-08T11:08:31.389Z,27.70
2018-06-08T11:10:59.920Z,27.70
2018-06-08T11:13:29.311Z,27.70
2018-06-08T11:15:57.679Z,27.70
2018-06-08T11:18:26.369Z,27.70
2018-06-08T11:20:54.696Z,27.60
2018-06-08T11:23:23.211Z,27.60
2018-06-08T11:25:51.637Z,27.50
2018-06-08T11:28:20.054Z,27.40
2018-06-08T11:30:48.401Z,27.40
2018-06-08T11:33:16.722Z,27.40
2018-06-08T11:35:45.041Z,27.40
2018-06-08T11:38:13.390Z,27.40
2018-06-08T11:40:41.857Z,27.40
2018-06-08T11:43:12.081Z,27.50
2018-06-08T11:45:50.466Z,27.50
2018-06-08T11:48:18.804Z,27.50
2018-06-08T11:50:47.357Z,27.60
2018-06-08T11:53:15.795Z,27.70
2018-06-08T11:55:44.172Z,27.90
2018-06-08T11:58:13.640Z,28.00
2018-06-08T12:00:43.253Z,28.10
2018-06-08T12:03:11.734Z,28.30
2018-06-08T12:05:40.522Z,28.40
2018-06-08T12:08:08.962Z,28.50
2018-06-08T12:10:37.373Z,28.50
2018-06-08T12:13:06.019Z,28.50
2018-06-08T12:15:34.382Z,28.60
2018-06-08T12:18:06.597Z,28.70
2018-06-08T12:20:35.770Z,28.80
2018-06-08T12:23:04.576Z,29.00
2018-06-08T12:25:35.765Z,29.10
2018-06-08T12:28:20.791Z,29.30
2018-06-08T12:30:49.246Z,29.40
2018-06-08T12:33:17.615Z,29.50
2018-06-08T12:35:45.986Z,29.60
2018-06-08T12:38:14.479Z,29.60
2018-06-08T12:40:42.977Z,29.70
2018-06-08T12:43:11.274Z,29.80
2018-06-08T12:45:39.677Z,29.90
2018-06-08T12:48:08.056Z,30.00
2018-06-08T12:50:36.523Z,30.10
2018-06-08T12:53:06.023Z,30.10
2018-06-08T12:55:35.554Z,30.10
2018-06-08T12:58:03.925Z,30.10
2018-06-08T13:00:32.282Z,29.90
2018-06-08T13:03:00.750Z,29.80
2018-06-08T13:05:30.643Z,29.80
2018-06-08T13:07:58.957Z,29.80
2018-06-08T13:10:28.297Z,29.90
2018-06-08T13:12:56.680Z,30.00
2018-06-08T13:15:25.110Z,30.10
2018-06-08T13:21:16.218Z,30.20
2018-06-08T13:23:44.642Z,30.30
2018-06-08T13:26:13.054Z,30.40
2018-06-08T13:28:41.409Z,30.40
2018-06-08T13:31:09.830Z,30.50
2018-06-08T13:33:38.173Z,30.60
2018-06-08T13:36:06.604Z,30.50
2018-06-08T13:38:35.105Z,30.50
2018-06-08T13:41:03.420Z,30.50
2018-06-08T13:43:31.758Z,30.60
2018-06-08T13:46:00.132Z,30.60
2018-06-08T13:48:28.540Z,30.50
2018-06-08T13:50:56.873Z,30.50
2018-06-08T13:53:25.221Z,30.40
2018-06-08T13:55:53.542Z,30.30
2018-06-08T13:58:21.872Z,30.30
2018-06-08T14:00:50.265Z,30.30
2018-06-08T14:03:18.766Z,30.30
2018-06-08T14:05:47.048Z,30.30
2018-06-08T14:08:15.428Z,30.30
2018-06-08T14:10:43.781Z,30.30
2018-06-08T14:13:12.146Z,30.30
2018-06-08T14:15:40.562Z,30.30
2018-06-08T14:18:08.893Z,30.30
2018-06-08T14:20:37.261Z,30.30
2018-06-08T14:25:33.672Z,30.20
2018-06-08T14:28:02.256Z,30.20
2018-06-08T14:30:30.602Z,30.00
2018-06-08T14:32:59.050Z,30.00
2018-06-08T14:35:27.522Z,30.00
2018-06-08T14:37:56.597Z,29.90
2018-06-08T14:40:25.264Z,29.90
2018-06-08T14:42:53.661Z,29.90
2018-06-08T14:45:22.058Z,29.80
2018-06-08T14:47:50.504Z,29.60
2018-06-08T14:50:18.821Z,29.60
2018-06-08T14:52:47.287Z,29.60
2018-06-08T14:55:15.673Z,29.50
2018-06-08T14:57:44.254Z,29.40
2018-06-08T15:00:12.768Z,29.40
2018-06-08T15:02:41.149Z,29.40
2018-06-08T15:05:09.568Z,29.40
2018-06-08T15:07:38.561Z,29.40
2018-06-08T15:10:09.972Z,29.40
2018-06-08T15:12:38.354Z,29.30
2018-06-08T15:15:06.836Z,29.20
2018-06-08T15:17:35.382Z,29.30
2018-06-08T15:20:03.692Z,29.20
2018-06-08T15:22:32.699Z,29.20
2018-06-08T15:25:06.286Z,29.20
2018-06-08T15:27:39.722Z,29.10
2018-06-08T15:30:16.961Z,29.10
2018-06-08T15:32:45.765Z,29.10
2018-06-08T15:35:15.482Z,29.00
2018-06-08T15:37:44.034Z,29.00
2018-06-08T15:40:12.447Z,29.00
2018-06-08T15:42:40.783Z,28.90
2018-06-08T15:45:09.828Z,28.90
2018-06-08T15:47:38.284Z,28.90
2018-06-08T15:50:08.353Z,28.80
2018-06-08T15:52:36.751Z,28.70
2018-06-08T15:55:05.162Z,28.60
2018-06-08T15:57:33.663Z,28.50
2018-06-08T16:00:02.811Z,28.50
2018-06-08T16:02:31.155Z,28.40
2018-06-08T16:04:59.561Z,28.20
2018-06-08T16:07:27.926Z,28.20
2018-06-08T16:09:57.647Z,28.10
2018-06-08T16:12:26.125Z,28.00
2018-06-08T16:14:54.532Z,28.00
2018-06-08T16:17:22.953Z,27.80
2018-06-08T16:19:51.386Z,27.80
2018-06-08T16:22:19.824Z,27.80
2018-06-08T16:24:48.280Z,27.70
2018-06-08T16:27:16.626Z,27.70
2018-06-08T16:29:45.051Z,27.60
2018-06-08T16:32:13.484Z,27.50
2018-06-08T16:34:41.889Z,27.40
2018-06-08T16:37:10.312Z,27.40
2018-06-08T16:39:38.731Z,27.40
2018-06-08T16:42:07.053Z,27.30
2018-06-08T16:44:35.591Z,27.30
2018-06-08T16:47:04.075Z,27.30
2018-06-08T16:49:32.681Z,27.40
2018-06-08T16:52:01.906Z,27.40
2018-06-08T16:54:30.396Z,27.30
2018-06-08T16:59:34.769Z,27.20
2018-06-08T17:02:07.609Z,27.20
2018-06-08T17:04:36.193Z,27.10
2018-06-08T17:07:04.724Z,27.10
2018-06-08T17:09:34.595Z,27.20
2018-06-08T17:12:03.351Z,27.20
2018-06-08T17:14:31.746Z,27.10
2018-06-08T17:17:00.136Z,27.10
2018-06-08T17:31:14.801Z,26.90
2018-06-08T17:34:00.552Z,26.70
2018-06-08T17:36:41.204Z,26.60
2018-06-08T17:39:16.531Z,26.60
2018-06-08T17:51:21.494Z,26.40
2018-06-08T17:53:53.131Z,26.40
2018-06-08T17:56:22.088Z,26.30
2018-06-08T17:58:53.884Z,26.30
2018-06-08T18:01:24.281Z,26.40
2018-06-08T18:03:54.337Z,26.30
2018-06-08T18:06:25.381Z,26.30
2018-06-08T18:14:01.098Z,26.20
2018-06-08T18:16:31.560Z,26.10
2018-06-08T18:19:00.027Z,26.10
2018-06-08T18:21:32.873Z,26.10
2018-06-08T18:24:06.025Z,26.00
2018-06-08T18:26:34.524Z,26.00
2018-06-08T18:29:07.693Z,26.00
2018-06-08T18:31:53.519Z,25.90
2018-06-08T18:34:21.970Z,25.90
2018-06-08T18:36:50.584Z,25.90
2018-06-08T18:39:19.333Z,25.90
2018-06-08T18:41:47.805Z,25.90
2018-06-08T18:44:16.290Z,25.90
2018-06-08T18:46:44.936Z,25.90
2018-06-08T18:49:13.588Z,25.90
2018-06-08T18:51:42.514Z,25.80
2018-06-08T18:54:11.139Z,25.60
2018-06-08T18:56:39.812Z,25.60
2018-06-08T18:59:08.736Z,25.60
2018-06-08T19:01:37.318Z,25.60
2018-06-08T19:04:05.937Z,25.60
2018-06-08T19:06:34.393Z,25.60
2018-06-08T19:09:06.014Z,25.60
2018-06-08T19:11:34.454Z,25.60
2018-06-08T19:14:12.700Z,25.50
2018-06-08T19:16:41.230Z,25.50
2018-06-08T19:19:11.809Z,25.50
2018-06-08T19:21:40.272Z,25.50
2018-06-08T19:24:08.911Z,25.50
2018-06-08T19:26:37.264Z,25.40
2018-06-08T19:29:05.795Z,25.40
2018-06-08T19:31:34.447Z,25.40
2018-06-08T19:34:02.965Z,25.40
2018-06-08T19:36:31.404Z,25.40
2018-06-08T19:38:59.889Z,25.40
2018-06-08T19:41:28.513Z,25.30
2018-06-08T19:43:57.042Z,25.30
2018-06-08T19:46:25.719Z,25.30
2018-06-08T19:48:54.433Z,25.20
2018-06-08T19:51:23.017Z,25.20
2018-06-08T19:53:51.576Z,25.20
2018-06-08T19:56:20.928Z,25.20
2018-06-08T19:58:49.462Z,25.00
2018-06-08T20:01:18.020Z,25.00
2018-06-08T20:03:46.621Z,24.90
2018-06-08T20:06:15.212Z,24.90
2018-06-08T20:08:53.213Z,24.90
2018-06-08T20:11:21.904Z,24.90
2018-06-08T20:13:50.485Z,24.90
2018-06-08T20:16:19.120Z,24.90
2018-06-08T20:18:47.564Z,24.90
2018-06-08T20:21:16.598Z,24.90
2018-06-08T20:23:45.112Z,24.90
2018-06-08T20:26:15.005Z,24.80
2018-06-08T20:28:55.504Z,24.80
2018-06-08T20:31:24.765Z,24.80
2018-06-08T20:33:53.277Z,24.80
2018-06-08T20:36:21.791Z,24.80
2018-06-08T20:38:50.232Z,24.80
2018-06-08T20:41:18.880Z,24.80
2018-06-08T20:43:47.272Z,24.80
2018-06-08T20:46:17.781Z,24.80
2018-06-08T20:48:46.207Z,24.70
2018-06-08T20:51:15.355Z,24.70
2018-06-08T20:53:43.761Z,24.70
2018-06-08T20:56:12.389Z,24.70
2018-06-08T20:58:40.702Z,24.70
2018-06-08T21:01:12.832Z,24.60
2018-06-08T21:03:41.854Z,24.60
2018-06-08T21:06:10.370Z,24.60
2018-06-08T21:08:38.808Z,24.60
2018-06-08T21:11:07.167Z,24.60
2018-06-08T21:13:39.029Z,24.60
2018-06-08T21:16:07.477Z,24.50
2018-06-08T21:18:39.344Z,24.50
2018-06-08T21:21:08.124Z,24.50
2018-06-08T21:23:43.952Z,24.50
2018-06-08T21:26:12.346Z,24.40
2018-06-08T21:28:42.887Z,24.40
2018-06-08T21:31:12.620Z,24.30
2018-06-08T21:33:41.020Z,24.30
2018-06-08T21:36:09.425Z,24.30
2018-06-08T21:38:37.834Z,24.30
2018-06-08T21:41:06.250Z,24.20
2018-06-08T21:43:34.642Z,24.20
2018-06-08T21:46:04.321Z,24.30
2018-06-08T21:48:32.708Z,24.20
2018-06-08T21:51:01.126Z,24.20
2018-06-08T21:53:29.466Z,24.20
2018-06-08T21:55:57.841Z,24.20
2018-06-08T21:58:26.329Z,24.20
2018-06-08T22:00:54.837Z,24.20
2018-06-08T22:03:23.237Z,24.10
2018-06-08T22:05:51.618Z,24.10
2018-06-08T22:08:21.687Z,24.10
2018-06-08T22:10:50.913Z,24.10
2018-06-08T22:13:19.339Z,24.10
2018-06-08T22:15:47.691Z,24.10
2018-06-08T22:18:16.050Z,24.10
2018-06-08T22:20:44.452Z,24.00
2018-06-08T22:23:12.761Z,24.00
2018-06-08T22:25:41.157Z,24.00
2018-06-08T22:28:09.488Z,24.00
2018-06-08T22:30:37.865Z,24.00
2018-06-08T22:33:06.154Z,23.90
2018-06-08T22:35:34.490Z,23.90
2018-06-08T22:38:02.850Z,23.90
2018-06-08T22:40:31.290Z,23.90
2018-06-08T22:42:59.697Z,23.90
2018-06-08T22:45:28.041Z,23.90
2018-06-08T22:47:56.797Z,23.80
2018-06-08T22:50:25.260Z,23.90
2018-06-08T22:52:53.652Z,23.80
2018-06-08T22:55:22.302Z,23.80
2018-06-08T22:57:50.716Z,23.80
2018-06-08T23:00:20.385Z,23.80
2018-06-08T23:02:48.778Z,23.70
2018-06-08T23:05:17.177Z,23.70
2018-06-08T23:07:45.627Z,23.70
2018-06-08T23:10:13.990Z,23.70
2018-06-08T23:12:42.365Z,23.70
2018-06-08T23:15:10.819Z,23.70
2018-06-08T23:17:39.217Z,23.60
2018-06-08T23:20:07.645Z,23.60
2018-06-08T23:22:36.034Z,23.60
2018-06-08T23:25:04.509Z,23.60
2018-06-08T23:27:32.925Z,23.60
2018-06-08T23:30:01.288Z,23.50
2018-06-08T23:32:29.608Z,23.50
2018-06-08T23:34:58.814Z,23.50
2018-06-08T23:37:27.200Z,23.50
2018-06-08T23:39:55.603Z,23.50
2018-06-08T23:42:24.027Z,23.40
2018-06-08T23:44:52.426Z,23.40
2018-06-08T23:47:20.749Z,23.40
2018-06-08T23:49:49.081Z,23.40
2018-06-08T23:52:17.416Z,23.40
2018-06-08T23:54:45.903Z,23.40
2018-06-08T23:57:15.059Z,23.40
2018-06-08T23:59:43.502Z,23.40
